Aviation Digital Data Service (ADDS)

Output produced by METARs form (0430 UTC 19 February 2019)
found at http://www.aviationweather.gov/metar/data/
 
Forecast for: KDSM (DES MOINES , IA, US)
Text: KDSM 182320Z 1900/1924 VRB04KT P6SM SCT150
Forecast period: 0000 to 1600 UTC 19 February 2019
Forecast type: FROM: standard forecast or significant change
Winds: variable direction winds at 5 MPH (4 knots; 2.1 m/s)
Visibility: 6 or more miles 10+ km)
Ceiling: at least 12,000 feet AGL
Clouds: scattered clouds at 15000 feet AGL
Weather: no significant weather forecast for this period
Text: FM191600 VRB03KT P6SM SCT035
Forecast period: 1600 to 1900 UTC 19 February 2019
Forecast type: FROM: standard forecast or significant change
Winds: variable direction winds at 3 MPH (3 knots; 1.5 m/s)
Visibility: 6 or more miles 10+ km)
Ceiling: at least 12,000 feet AGL
Clouds: scattered clouds at 3500 feet AGL
Weather: no significant weather forecast for this period
Text: FM191900 09006KT P6SM BKN040
Forecast period: 1900 UTC 19 February 2019 to 0000 UTC 20 February 2019
Forecast type: FROM: standard forecast or significant change
Winds: from the E (90 degrees) at 7 MPH (6 knots; 3.1 m/s)
Visibility: 6 or more miles 10+ km)
Ceiling: 4000 feet AGL
Clouds: broken clouds at 4000 feet AGL
Weather: no significant weather forecast for this period